sensor_id;sensor_type;location;lat;lon;timestamp;pressure;altitude;pressure_sealevel;temperature;humidity
23016;BME280;11674;52.428;13.584;2023-08-06T00:05:09;100543.94;;;20.27;65.86
23016;BME280;11674;52.428;13.584;2023-08-06T00:10:16;100539.84;;;20.24;66.07
23016;BME280;11674;52.428;13.584;2023-08-06T00:15:23;100526.81;;;20.20;66.10
23016;BME280;11674;52.428;13.584;2023-08-06T00:20:30;100520.28;;;20.16;66.27
23016;BME280;11674;52.428;13.584;2023-08-06T00:25:37;100512.53;;;20.13;66.54
23016;BME280;11674;52.428;13.584;2023-08-06T00:30:44;100510.09;;;20.11;66.36
23016;BME280;11674;52.428;13.584;2023-08-06T00:35:51;100509.63;;;20.09;66.57
23016;BME280;11674;52.428;13.584;2023-08-06T00:40:58;100503.03;;;20.05;66.55
23016;BME280;11674;52.428;13.584;2023-08-06T00:46:05;100499.56;;;19.96;66.61
23016;BME280;11674;52.428;13.584;2023-08-06T00:51:12;100508.16;;;19.88;66.81
23016;BME280;11674;52.428;13.584;2023-08-06T00:56:19;100513.25;;;19.82;67.00
23016;BME280;11674;52.428;13.584;2023-08-06T01:01:26;100510.22;;;19.75;67.27
23016;BME280;11674;52.428;13.584;2023-08-06T01:06:58;100502.75;;;19.67;67.33
23016;BME280;11674;52.428;13.584;2023-08-06T01:12:13;100499.50;;;19.53;67.84
23016;BME280;11674;52.428;13.584;2023-08-06T01:17:26;100498.03;;;19.44;67.74
23016;BME280;11674;52.428;13.584;2023-08-06T01:22:33;100488.28;;;19.41;68.19
23016;BME280;11674;52.428;13.584;2023-08-06T01:27:44;100480.09;;;19.36;68.38
23016;BME280;11674;52.428;13.584;2023-08-06T01:32:58;100472.75;;;19.32;68.25
23016;BME280;11674;52.428;13.584;2023-08-06T01:38:06;100474.84;;;19.23;68.67
23016;BME280;11674;52.428;13.584;2023-08-06T01:43:13;100473.78;;;19.15;69.16
23016;BME280;11674;52.428;13.584;2023-08-06T01:48:20;100470.16;;;19.15;68.96
23016;BME280;11674;52.428;13.584;2023-08-06T01:53:27;100447.53;;;19.11;69.54
23016;BME280;11674;52.428;13.584;2023-08-06T01:58:34;100439.94;;;19.12;69.83
23016;BME280;11674;52.428;13.584;2023-08-06T02:03:41;100439.47;;;19.10;69.91
23016;BME280;11674;52.428;13.584;2023-08-06T02:08:48;100445.78;;;19.07;70.17
23016;BME280;11674;52.428;13.584;2023-08-06T02:13:55;100435.38;;;19.07;70.28
23016;BME280;11674;52.428;13.584;2023-08-06T02:19:02;100431.28;;;19.05;70.57
23016;BME280;11674;52.428;13.584;2023-08-06T02:24:09;100415.94;;;19.02;70.52
23016;BME280;11674;52.428;13.584;2023-08-06T02:29:17;100415.34;;;18.97;71.15
23016;BME280;11674;52.428;13.584;2023-08-06T02:34:24;100416.44;;;18.92;71.08
23016;BME280;11674;52.428;13.584;2023-08-06T02:39:31;100412.56;;;18.85;71.60
23016;BME280;11674;52.428;13.584;2023-08-06T02:44:38;100410.34;;;18.78;71.65
23016;BME280;11674;52.428;13.584;2023-08-06T02:49:45;100403.22;;;18.69;72.30
23016;BME280;11674;52.428;13.584;2023-08-06T02:54:54;100410.97;;;18.60;72.74
23016;BME280;11674;52.428;13.584;2023-08-06T03:00:03;100397.16;;;18.55;72.90
23016;BME280;11674;52.428;13.584;2023-08-06T03:05:10;100409.09;;;18.52;73.48
23016;BME280;11674;52.428;13.584;2023-08-06T03:10:20;100402.31;;;18.53;73.90
23016;BME280;11674;52.428;13.584;2023-08-06T03:15:28;100395.06;;;18.52;74.12
23016;BME280;11674;52.428;13.584;2023-08-06T03:20:36;100384.16;;;18.50;74.41
23016;BME280;11674;52.428;13.584;2023-08-06T03:25:44;100368.00;;;18.47;74.72
23016;BME280;11674;52.428;13.584;2023-08-06T03:31:02;100357.13;;;18.46;74.98
23016;BME280;11674;52.428;13.584;2023-08-06T03:36:14;100359.69;;;18.39;75.50
23016;BME280;11674;52.428;13.584;2023-08-06T03:41:24;100354.81;;;18.36;76.03
23016;BME280;11674;52.428;13.584;2023-08-06T03:46:32;100349.63;;;18.38;76.38
23016;BME280;11674;52.428;13.584;2023-08-06T03:51:40;100342.84;;;18.39;76.97
23016;BME280;11674;52.428;13.584;2023-08-06T03:56:47;100341.22;;;18.38;77.39
23016;BME280;11674;52.428;13.584;2023-08-06T04:01:55;100328.69;;;18.35;77.55
23016;BME280;11674;52.428;13.584;2023-08-06T04:07:01;100309.03;;;18.35;77.84
23016;BME280;11674;52.428;13.584;2023-08-06T04:12:08;100316.66;;;18.35;78.53
23016;BME280;11674;52.428;13.584;2023-08-06T04:17:15;100308.22;;;18.35;78.34
23016;BME280;11674;52.428;13.584;2023-08-06T04:22:23;100305.41;;;18.35;78.56
23016;BME280;11674;52.428;13.584;2023-08-06T04:27:30;100294.53;;;18.33;79.01
23016;BME280;11674;52.428;13.584;2023-08-06T04:32:37;100281.66;;;18.32;78.87
23016;BME280;11674;52.428;13.584;2023-08-06T04:37:45;100276.16;;;18.36;79.07
23016;BME280;11674;52.428;13.584;2023-08-06T04:42:52;100270.63;;;18.39;79.31
23016;BME280;11674;52.428;13.584;2023-08-06T04:47:58;100269.13;;;18.42;79.36
23016;BME280;11674;52.428;13.584;2023-08-06T04:53:05;100263.94;;;18.44;79.74
23016;BME280;11674;52.428;13.584;2023-08-06T04:58:13;100264.88;;;18.48;79.96
23016;BME280;11674;52.428;13.584;2023-08-06T05:03:20;100264.53;;;18.49;80.10
23016;BME280;11674;52.428;13.584;2023-08-06T05:08:27;100262.28;;;18.55;80.13
23016;BME280;11674;52.428;13.584;2023-08-06T05:13:34;100260.66;;;18.54;80.00
23016;BME280;11674;52.428;13.584;2023-08-06T05:18:41;100254.47;;;18.48;79.93
23016;BME280;11674;52.428;13.584;2023-08-06T05:23:48;100243.47;;;18.43;80.51
23016;BME280;11674;52.428;13.584;2023-08-06T05:28:55;100248.25;;;18.43;80.51
23016;BME280;11674;52.428;13.584;2023-08-06T05:34:02;100238.91;;;18.51;80.77
23016;BME280;11674;52.428;13.584;2023-08-06T05:39:09;100233.94;;;18.60;80.82
23016;BME280;11674;52.428;13.584;2023-08-06T05:44:23;100236.97;;;18.67;80.92
23016;BME280;11674;52.428;13.584;2023-08-06T05:49:30;100234.34;;;18.74;80.97
23016;BME280;11674;52.428;13.584;2023-08-06T05:54:37;100231.63;;;18.77;81.19
23016;BME280;11674;52.428;13.584;2023-08-06T05:59:44;100231.19;;;18.75;80.84
23016;BME280;11674;52.428;13.584;2023-08-06T06:04:51;100224.03;;;18.78;80.81
23016;BME280;11674;52.428;13.584;2023-08-06T06:09:58;100220.97;;;18.83;81.06
23016;BME280;11674;52.428;13.584;2023-08-06T06:15:06;100218.59;;;18.85;80.97
23016;BME280;11674;52.428;13.584;2023-08-06T06:20:12;100214.97;;;18.84;80.89
23016;BME280;11674;52.428;13.584;2023-08-06T06:25:19;100206.66;;;18.88;81.01
23016;BME280;11674;52.428;13.584;2023-08-06T06:30:26;100206.50;;;18.96;81.00
23016;BME280;11674;52.428;13.584;2023-08-06T06:35:33;100193.56;;;18.95;81.11
23016;BME280;11674;52.428;13.584;2023-08-06T06:40:40;100190.63;;;19.04;81.30
23016;BME280;11674;52.428;13.584;2023-08-06T06:45:52;100197.97;;;19.08;81.46
23016;BME280;11674;52.428;13.584;2023-08-06T06:50:59;100189.81;;;19.03;81.60
23016;BME280;11674;52.428;13.584;2023-08-06T06:56:06;100197.97;;;19.08;81.66
23016;BME280;11674;52.428;13.584;2023-08-06T07:01:14;100196.16;;;19.16;81.83
23016;BME280;11674;52.428;13.584;2023-08-06T07:06:21;100198.91;;;19.12;81.82
23016;BME280;11674;52.428;13.584;2023-08-06T07:11:28;100198.50;;;19.14;81.64
23016;BME280;11674;52.428;13.584;2023-08-06T07:16:35;100204.91;;;19.26;81.50
23016;BME280;11674;52.428;13.584;2023-08-06T07:21:42;100202.72;;;19.20;81.26
23016;BME280;11674;52.428;13.584;2023-08-06T07:26:53;100199.34;;;19.14;81.58
23016;BME280;11674;52.428;13.584;2023-08-06T07:31:59;100194.81;;;19.10;81.68
23016;BME280;11674;52.428;13.584;2023-08-06T07:37:06;100188.19;;;19.18;82.04
23016;BME280;11674;52.428;13.584;2023-08-06T07:42:14;100196.81;;;19.25;82.20
23016;BME280;11674;52.428;13.584;2023-08-06T07:47:20;100195.44;;;19.19;81.99
23016;BME280;11674;52.428;13.584;2023-08-06T07:52:27;100199.69;;;19.13;82.68
23016;BME280;11674;52.428;13.584;2023-08-06T07:57:34;100189.63;;;19.12;82.58
23016;BME280;11674;52.428;13.584;2023-08-06T08:02:41;100200.16;;;19.15;82.97
23016;BME280;11674;52.428;13.584;2023-08-06T08:07:48;100194.53;;;19.15;83.28
23016;BME280;11674;52.428;13.584;2023-08-06T08:12:55;100190.28;;;19.21;83.53
23016;BME280;11674;52.428;13.584;2023-08-06T08:18:02;100180.91;;;19.17;83.36
23016;BME280;11674;52.428;13.584;2023-08-06T08:23:09;100184.00;;;19.12;83.36
23016;BME280;11674;52.428;13.584;2023-08-06T08:28:16;100175.47;;;19.08;83.24
23016;BME280;11674;52.428;13.584;2023-08-06T08:33:23;100163.13;;;19.13;83.69
23016;BME280;11674;52.428;13.584;2023-08-06T08:38:30;100160.66;;;19.23;84.05
23016;BME280;11674;52.428;13.584;2023-08-06T08:43:38;100152.09;;;19.20;83.91
23016;BME280;11674;52.428;13.584;2023-08-06T08:48:47;100149.00;;;19.25;84.35
23016;BME280;11674;52.428;13.584;2023-08-06T08:53:55;100134.03;;;19.36;83.97
23016;BME280;11674;52.428;13.584;2023-08-06T08:59:01;100134.88;;;19.37;83.61
23016;BME280;11674;52.428;13.584;2023-08-06T09:04:10;100112.25;;;19.49;84.12
23016;BME280;11674;52.428;13.584;2023-08-06T09:09:22;100113.06;;;19.49;84.12
23016;BME280;11674;52.428;13.584;2023-08-06T09:14:31;100106.41;;;19.57;84.54
23016;BME280;11674;52.428;13.584;2023-08-06T09:19:42;100112.44;;;19.75;84.37
23016;BME280;11674;52.428;13.584;2023-08-06T09:24:49;100100.34;;;19.90;83.92
23016;BME280;11674;52.428;13.584;2023-08-06T09:29:55;100090.13;;;20.01;83.98
23016;BME280;11674;52.428;13.584;2023-08-06T09:35:03;100081.47;;;20.09;83.87
23016;BME280;11674;52.428;13.584;2023-08-06T09:40:36;100080.03;;;20.00;84.08
23016;BME280;11674;52.428;13.584;2023-08-06T09:45:42;100070.69;;;19.96;83.81
23016;BME280;11674;52.428;13.584;2023-08-06T09:50:50;100079.94;;;19.96;83.46
23016;BME280;11674;52.428;13.584;2023-08-06T09:55:57;100074.03;;;19.82;83.57
23016;BME280;11674;52.428;13.584;2023-08-06T10:01:04;100066.28;;;19.60;83.11
23016;BME280;11674;52.428;13.584;2023-08-06T10:06:11;100061.22;;;19.50;83.66
23016;BME280;11674;52.428;13.584;2023-08-06T10:11:21;100060.88;;;19.52;83.65
23016;BME280;11674;52.428;13.584;2023-08-06T10:16:29;100055.97;;;19.49;83.48
23016;BME280;11674;52.428;13.584;2023-08-06T10:21:40;100050.56;;;19.59;83.67
23016;BME280;11674;52.428;13.584;2023-08-06T10:26:46;100044.25;;;19.81;83.96
23016;BME280;11674;52.428;13.584;2023-08-06T10:31:54;100046.69;;;20.02;83.82
23016;BME280;11674;52.428;13.584;2023-08-06T10:37:02;100041.38;;;20.16;83.55
23016;BME280;11674;52.428;13.584;2023-08-06T10:42:22;100043.59;;;20.07;82.54
23016;BME280;11674;52.428;13.584;2023-08-06T10:47:28;100030.09;;;20.16;82.79
23016;BME280;11674;52.428;13.584;2023-08-06T10:52:35;100027.72;;;20.18;82.58
23016;BME280;11674;52.428;13.584;2023-08-06T10:57:42;100038.75;;;20.07;82.28
23016;BME280;11674;52.428;13.584;2023-08-06T11:02:51;100019.16;;;20.11;82.44
23016;BME280;11674;52.428;13.584;2023-08-06T11:07:59;100014.44;;;20.18;82.92
23016;BME280;11674;52.428;13.584;2023-08-06T11:13:06;100014.13;;;20.23;82.77
23016;BME280;11674;52.428;13.584;2023-08-06T11:18:13;100006.81;;;20.19;82.62
23016;BME280;11674;52.428;13.584;2023-08-06T11:23:20;100001.47;;;20.14;82.67
23016;BME280;11674;52.428;13.584;2023-08-06T11:28:27;99990.56;;;20.12;82.33
23016;BME280;11674;52.428;13.584;2023-08-06T11:33:34;99991.84;;;20.15;82.68
23016;BME280;11674;52.428;13.584;2023-08-06T11:38:41;99989.84;;;20.15;82.20
23016;BME280;11674;52.428;13.584;2023-08-06T11:43:48;99977.16;;;20.06;82.10
23016;BME280;11674;52.428;13.584;2023-08-06T11:48:56;99968.56;;;19.99;81.57
23016;BME280;11674;52.428;13.584;2023-08-06T11:54:03;99962.13;;;19.98;81.95
23016;BME280;11674;52.428;13.584;2023-08-06T11:59:10;99970.78;;;20.09;82.69
23016;BME280;11674;52.428;13.584;2023-08-06T12:04:17;99961.19;;;20.32;82.50
23016;BME280;11674;52.428;13.584;2023-08-06T12:09:23;99958.00;;;20.34;83.03
23016;BME280;11674;52.428;13.584;2023-08-06T12:14:31;99958.25;;;20.25;82.91
23016;BME280;11674;52.428;13.584;2023-08-06T12:19:38;99950.50;;;20.41;83.05
23016;BME280;11674;52.428;13.584;2023-08-06T12:24:46;99948.22;;;20.50;82.64
23016;BME280;11674;52.428;13.584;2023-08-06T12:29:53;99955.03;;;20.49;82.87
23016;BME280;11674;52.428;13.584;2023-08-06T12:35:00;99955.88;;;20.50;82.97
23016;BME280;11674;52.428;13.584;2023-08-06T12:40:07;99945.91;;;20.56;82.95
23016;BME280;11674;52.428;13.584;2023-08-06T12:45:14;99951.53;;;20.56;82.65
23016;BME280;11674;52.428;13.584;2023-08-06T12:50:21;99944.97;;;20.48;82.79
23016;BME280;11674;52.428;13.584;2023-08-06T12:55:28;99949.59;;;20.37;82.88
23016;BME280;11674;52.428;13.584;2023-08-06T13:00:35;99942.84;;;20.19;82.89
23016;BME280;11674;52.428;13.584;2023-08-06T13:05:42;99948.78;;;20.14;83.53
23016;BME280;11674;52.428;13.584;2023-08-06T13:10:49;99941.44;;;20.10;83.39
23016;BME280;11674;52.428;13.584;2023-08-06T13:15:56;99950.56;;;20.03;83.74
23016;BME280;11674;52.428;13.584;2023-08-06T13:21:03;99945.84;;;19.88;83.86
23016;BME280;11674;52.428;13.584;2023-08-06T13:26:10;99942.34;;;19.76;83.87
23016;BME280;11674;52.428;13.584;2023-08-06T13:31:17;99945.47;;;19.71;84.14
23016;BME280;11674;52.428;13.584;2023-08-06T13:36:25;99939.72;;;19.64;84.78
23016;BME280;11674;52.428;13.584;2023-08-06T13:41:33;99944.28;;;19.72;85.37
23016;BME280;11674;52.428;13.584;2023-08-06T13:46:40;99942.28;;;19.72;84.57
23016;BME280;11674;52.428;13.584;2023-08-06T13:51:48;99939.53;;;19.57;84.68
23016;BME280;11674;52.428;13.584;2023-08-06T13:56:55;99941.31;;;19.46;84.52
23016;BME280;11674;52.428;13.584;2023-08-06T14:02:02;99937.03;;;19.33;85.33
23016;BME280;11674;52.428;13.584;2023-08-06T14:07:09;99942.13;;;19.27;85.36
23016;BME280;11674;52.428;13.584;2023-08-06T14:12:16;99941.25;;;19.23;85.69
23016;BME280;11674;52.428;13.584;2023-08-06T14:17:23;99935.78;;;19.30;86.13
23016;BME280;11674;52.428;13.584;2023-08-06T14:22:30;99941.47;;;19.34;85.52
23016;BME280;11674;52.428;13.584;2023-08-06T14:27:38;99932.31;;;19.37;85.83
23016;BME280;11674;52.428;13.584;2023-08-06T14:32:45;99940.00;;;19.40;85.99
23016;BME280;11674;52.428;13.584;2023-08-06T14:37:52;99935.31;;;19.47;85.65
23016;BME280;11674;52.428;13.584;2023-08-06T14:43:00;99934.97;;;19.49;85.91
23016;BME280;11674;52.428;13.584;2023-08-06T14:48:16;99943.69;;;19.44;85.35
23016;BME280;11674;52.428;13.584;2023-08-06T14:53:24;99943.47;;;19.33;85.53
23016;BME280;11674;52.428;13.584;2023-08-06T14:58:31;99948.28;;;19.33;85.91
23016;BME280;11674;52.428;13.584;2023-08-06T15:03:38;99945.50;;;19.17;85.29
23016;BME280;11674;52.428;13.584;2023-08-06T15:08:45;99940.44;;;19.07;85.19
23016;BME280;11674;52.428;13.584;2023-08-06T15:13:52;99945.09;;;19.00;84.99
23016;BME280;11674;52.428;13.584;2023-08-06T15:18:59;99936.19;;;18.98;84.65
23016;BME280;11674;52.428;13.584;2023-08-06T15:24:06;99934.56;;;18.97;84.80
23016;BME280;11674;52.428;13.584;2023-08-06T15:29:13;99935.41;;;18.97;84.43
23016;BME280;11674;52.428;13.584;2023-08-06T15:34:20;99946.28;;;18.99;84.05
23016;BME280;11674;52.428;13.584;2023-08-06T15:39:27;99950.63;;;18.96;84.27
23016;BME280;11674;52.428;13.584;2023-08-06T15:44:34;99946.16;;;18.95;83.96
23016;BME280;11674;52.428;13.584;2023-08-06T15:49:48;99952.34;;;19.01;84.31
23016;BME280;11674;52.428;13.584;2023-08-06T15:54:55;99960.34;;;18.99;84.25
23016;BME280;11674;52.428;13.584;2023-08-06T16:00:03;99955.97;;;19.01;84.32
23016;BME280;11674;52.428;13.584;2023-08-06T16:05:13;99965.47;;;19.12;84.68
23016;BME280;11674;52.428;13.584;2023-08-06T16:10:20;99959.84;;;19.12;84.30
23016;BME280;11674;52.428;13.584;2023-08-06T16:15:27;99955.94;;;19.17;84.06
23016;BME280;11674;52.428;13.584;2023-08-06T16:20:44;99952.22;;;19.13;84.11
23016;BME280;11674;52.428;13.584;2023-08-06T16:25:51;99954.66;;;19.14;84.04
23016;BME280;11674;52.428;13.584;2023-08-06T16:30:58;99955.50;;;19.15;84.21
23016;BME280;11674;52.428;13.584;2023-08-06T16:36:05;99956.66;;;19.14;84.28
23016;BME280;11674;52.428;13.584;2023-08-06T16:41:12;99955.03;;;19.13;84.24
23016;BME280;11674;52.428;13.584;2023-08-06T16:46:19;99953.47;;;19.15;84.29
23016;BME280;11674;52.428;13.584;2023-08-06T16:51:26;99944.25;;;19.15;84.10
23016;BME280;11674;52.428;13.584;2023-08-06T16:56:33;99947.66;;;19.24;84.35
23016;BME280;11674;52.428;13.584;2023-08-06T17:01:40;99938.94;;;19.29;84.34
23016;BME280;11674;52.428;13.584;2023-08-06T17:06:47;99943.84;;;19.32;84.22
23016;BME280;11674;52.428;13.584;2023-08-06T17:11:54;99953.19;;;19.36;84.02
23016;BME280;11674;52.428;13.584;2023-08-06T17:17:01;99941.53;;;19.37;84.13
23016;BME280;11674;52.428;13.584;2023-08-06T17:22:08;99940.56;;;19.30;84.10
23016;BME280;11674;52.428;13.584;2023-08-06T17:27:15;99937.50;;;19.19;83.60
23016;BME280;11674;52.428;13.584;2023-08-06T17:32:22;99933.78;;;19.15;84.07
23016;BME280;11674;52.428;13.584;2023-08-06T17:37:29;99932.03;;;19.07;83.41
23016;BME280;11674;52.428;13.584;2023-08-06T17:42:36;99924.75;;;19.06;83.61
23016;BME280;11674;52.428;13.584;2023-08-06T17:47:43;99931.47;;;19.02;83.78
23016;BME280;11674;52.428;13.584;2023-08-06T17:52:50;99928.44;;;18.91;83.72
23016;BME280;11674;52.428;13.584;2023-08-06T17:57:57;99925.16;;;18.89;83.26
23016;BME280;11674;52.428;13.584;2023-08-06T18:03:04;99945.50;;;18.83;83.53
23016;BME280;11674;52.428;13.584;2023-08-06T18:08:11;99937.34;;;18.78;83.52
23016;BME280;11674;52.428;13.584;2023-08-06T18:13:18;99935.69;;;18.77;83.88
23016;BME280;11674;52.428;13.584;2023-08-06T18:18:25;99936.00;;;18.72;83.46
23016;BME280;11674;52.428;13.584;2023-08-06T18:23:32;99931.09;;;18.69;83.50
23016;BME280;11674;52.428;13.584;2023-08-06T18:28:39;99936.63;;;18.65;83.46
23016;BME280;11674;52.428;13.584;2023-08-06T18:33:46;99943.31;;;18.61;83.64
23016;BME280;11674;52.428;13.584;2023-08-06T18:38:53;99948.06;;;18.57;83.28
23016;BME280;11674;52.428;13.584;2023-08-06T18:44:00;99952.69;;;18.49;83.28
23016;BME280;11674;52.428;13.584;2023-08-06T18:49:07;99946.16;;;18.45;83.17
23016;BME280;11674;52.428;13.584;2023-08-06T18:54:14;99948.13;;;18.45;83.42
23016;BME280;11674;52.428;13.584;2023-08-06T18:59:21;99948.88;;;18.42;83.39
23016;BME280;11674;52.428;13.584;2023-08-06T19:04:28;99952.03;;;18.40;83.39
23016;BME280;11674;52.428;13.584;2023-08-06T19:09:35;99962.47;;;18.40;83.77
23016;BME280;11674;52.428;13.584;2023-08-06T19:14:42;99977.69;;;18.39;84.06
23016;BME280;11674;52.428;13.584;2023-08-06T19:19:49;99985.75;;;18.40;84.15
23016;BME280;11674;52.428;13.584;2023-08-06T19:24:56;99979.88;;;18.45;84.19
23016;BME280;11674;52.428;13.584;2023-08-06T19:30:03;99973.16;;;18.50;84.26
23016;BME280;11674;52.428;13.584;2023-08-06T19:35:10;99972.00;;;18.51;84.04
23016;BME280;11674;52.428;13.584;2023-08-06T19:40:17;99974.91;;;18.54;84.27
23016;BME280;11674;52.428;13.584;2023-08-06T19:45:24;99960.19;;;18.61;84.07
23016;BME280;11674;52.428;13.584;2023-08-06T19:50:31;99959.03;;;18.62;84.07
23016;BME280;11674;52.428;13.584;2023-08-06T19:55:38;99958.28;;;18.65;83.98
23016;BME280;11674;52.428;13.584;2023-08-06T20:00:45;99965.44;;;18.62;84.23
23016;BME280;11674;52.428;13.584;2023-08-06T20:05:52;99969.53;;;18.65;84.37
23016;BME280;11674;52.428;13.584;2023-08-06T20:10:59;99960.03;;;18.54;84.06
23016;BME280;11674;52.428;13.584;2023-08-06T20:16:06;99955.94;;;18.51;84.45
23016;BME280;11674;52.428;13.584;2023-08-06T20:21:13;99957.03;;;18.47;84.59
23016;BME280;11674;52.428;13.584;2023-08-06T20:26:20;99959.50;;;18.48;84.56
23016;BME280;11674;52.428;13.584;2023-08-06T20:31:27;99954.94;;;18.44;84.77
23016;BME280;11674;52.428;13.584;2023-08-06T20:36:34;99956.41;;;18.38;84.68
23016;BME280;11674;52.428;13.584;2023-08-06T20:41:41;99960.19;;;18.30;84.92
23016;BME280;11674;52.428;13.584;2023-08-06T20:46:48;99951.75;;;18.30;85.44
23016;BME280;11674;52.428;13.584;2023-08-06T20:51:55;99958.28;;;18.34;85.15
23016;BME280;11674;52.428;13.584;2023-08-06T20:57:02;99966.44;;;18.39;85.09
23016;BME280;11674;52.428;13.584;2023-08-06T21:02:09;99959.69;;;18.40;85.35
23016;BME280;11674;52.428;13.584;2023-08-06T21:07:16;99965.81;;;18.45;85.45
23016;BME280;11674;52.428;13.584;2023-08-06T21:12:23;99970.16;;;18.43;85.30
23016;BME280;11674;52.428;13.584;2023-08-06T21:17:30;99962.09;;;18.41;84.93
23016;BME280;11674;52.428;13.584;2023-08-06T21:22:37;99962.47;;;18.40;84.76
23016;BME280;11674;52.428;13.584;2023-08-06T21:27:44;99953.94;;;18.36;84.91
23016;BME280;11674;52.428;13.584;2023-08-06T21:32:51;99950.56;;;18.31;84.51
23016;BME280;11674;52.428;13.584;2023-08-06T21:37:58;99939.53;;;18.22;84.19
23016;BME280;11674;52.428;13.584;2023-08-06T21:43:05;99950.53;;;18.15;84.60
23016;BME280;11674;52.428;13.584;2023-08-06T21:48:14;99966.03;;;18.09;84.32
23016;BME280;11674;52.428;13.584;2023-08-06T21:53:21;99971.09;;;18.04;84.12
23016;BME280;11674;52.428;13.584;2023-08-06T21:58:28;99969.34;;;17.99;84.01
23016;BME280;11674;52.428;13.584;2023-08-06T22:03:36;99969.25;;;17.96;84.10
23016;BME280;11674;52.428;13.584;2023-08-06T22:08:43;99978.41;;;17.93;84.08
23016;BME280;11674;52.428;13.584;2023-08-06T22:13:50;99980.31;;;17.89;84.18
23016;BME280;11674;52.428;13.584;2023-08-06T22:18:57;99980.09;;;17.82;84.18
23016;BME280;11674;52.428;13.584;2023-08-06T22:24:04;99982.69;;;17.75;84.17
23016;BME280;11674;52.428;13.584;2023-08-06T22:29:11;99981.31;;;17.69;84.44
23016;BME280;11674;52.428;13.584;2023-08-06T22:34:18;99987.75;;;17.69;84.71
23016;BME280;11674;52.428;13.584;2023-08-06T22:39:25;99987.66;;;17.66;84.60
23016;BME280;11674;52.428;13.584;2023-08-06T22:44:32;99986.63;;;17.58;84.18
23016;BME280;11674;52.428;13.584;2023-08-06T22:49:39;99987.81;;;17.57;84.31
23016;BME280;11674;52.428;13.584;2023-08-06T22:54:46;99998.66;;;17.59;84.04
23016;BME280;11674;52.428;13.584;2023-08-06T22:59:54;99993.28;;;17.54;84.11
23016;BME280;11674;52.428;13.584;2023-08-06T23:05:01;100004.06;;;17.52;84.39
23016;BME280;11674;52.428;13.584;2023-08-06T23:10:08;100002.44;;;17.51;84.42
23016;BME280;11674;52.428;13.584;2023-08-06T23:15:15;100010.50;;;17.52;84.35
23016;BME280;11674;52.428;13.584;2023-08-06T23:20:22;100001.94;;;17.49;84.16
23016;BME280;11674;52.428;13.584;2023-08-06T23:25:29;100011.00;;;17.42;84.29
23016;BME280;11674;52.428;13.584;2023-08-06T23:30:36;100006.19;;;17.43;84.39
23016;BME280;11674;52.428;13.584;2023-08-06T23:35:43;99996.47;;;17.40;84.48
23016;BME280;11674;52.428;13.584;2023-08-06T23:40:50;99986.31;;;17.36;84.48
23016;BME280;11674;52.428;13.584;2023-08-06T23:45:57;99983.06;;;17.34;84.56
23016;BME280;11674;52.428;13.584;2023-08-06T23:51:04;99987.00;;;17.33;84.84
23016;BME280;11674;52.428;13.584;2023-08-06T23:56:11;99976.72;;;17.37;84.79
